Lystrup, Denmark
Current Conditions -  °F | °C
As of 7:50 PM on Sunday 23 Nov 2014 (Local Time) from EKAH Reporting Station
Overcast Overcast  
Wind Chill: 41°   Ceiling: 900
Heat Index: 46°   Visibility: 4mi
Dew Point: 41°   Wind: 13mph
Humidity: 81%   Direction: 150°SSE
Pressure: 30"   Gusts: 24mph
Location:  56.24°N, 10.24°E
Report Text: EKAH 231850Z AUTO 15011G21KT 110V210 6000NDV OVC009///08/05 Q1016
Loading
Personal Weather Stations






























Interactive Weather Map New forecast layout! Learn more

10-Day Weather Forecast

Advertisements
Track Severe Weather on mobile